sensor_id;sensor_type;location;lat;lon;timestamp;temperature;humidity
15257;DHT22;7731;50.720;6.912;2024-01-16T00:02:11;1.10;99.90
15257;DHT22;7731;50.720;6.912;2024-01-16T00:04:43;1.10;99.90
15257;DHT22;7731;50.720;6.912;2024-01-16T00:07:16;1.10;99.90
15257;DHT22;7731;50.720;6.912;2024-01-16T00:09:46;1.20;99.90
15257;DHT22;7731;50.720;6.912;2024-01-16T00:12:20;1.20;99.90
15257;DHT22;7731;50.720;6.912;2024-01-16T00:14:50;1.20;99.90
15257;DHT22;7731;50.720;6.912;2024-01-16T00:17:21;1.30;99.90
15257;DHT22;7731;50.720;6.912;2024-01-16T00:19:53;1.20;99.90
15257;DHT22;7731;50.720;6.912;2024-01-16T00:22:30;1.30;99.90
15257;DHT22;7731;50.720;6.912;2024-01-16T00:25:00;1.30;99.90
15257;DHT22;7731;50.720;6.912;2024-01-16T00:27:33;1.20;99.90
15257;DHT22;7731;50.720;6.912;2024-01-16T00:30:05;1.20;99.90
15257;DHT22;7731;50.720;6.912;2024-01-16T00:32:36;1.20;99.90
15257;DHT22;7731;50.720;6.912;2024-01-16T00:35:12;1.20;99.90
15257;DHT22;7731;50.720;6.912;2024-01-16T00:37:45;1.30;99.90
15257;DHT22;7731;50.720;6.912;2024-01-16T00:40:30;1.40;99.90
15257;DHT22;7731;50.720;6.912;2024-01-16T00:43:00;1.50;99.90
15257;DHT22;7731;50.720;6.912;2024-01-16T00:45:34;1.40;99.90
15257;DHT22;7731;50.720;6.912;2024-01-16T00:48:05;1.50;99.90
15257;DHT22;7731;50.720;6.912;2024-01-16T00:50:37;1.50;99.90
15257;DHT22;7731;50.720;6.912;2024-01-16T00:53:13;1.40;99.90
15257;DHT22;7731;50.720;6.912;2024-01-16T00:55:46;1.30;99.90
15257;DHT22;7731;50.720;6.912;2024-01-16T00:58:17;1.40;99.90
15257;DHT22;7731;50.720;6.912;2024-01-16T01:00:50;1.30;99.90
15257;DHT22;7731;50.720;6.912;2024-01-16T01:03:20;1.40;99.90
15257;DHT22;7731;50.720;6.912;2024-01-16T01:05:50;1.30;99.90
15257;DHT22;7731;50.720;6.912;2024-01-16T01:08:28;1.30;99.90
15257;DHT22;7731;50.720;6.912;2024-01-16T01:10:59;1.40;99.90
15257;DHT22;7731;50.720;6.912;2024-01-16T01:13:32;1.40;99.90
15257;DHT22;7731;50.720;6.912;2024-01-16T01:16:04;1.30;99.90
15257;DHT22;7731;50.720;6.912;2024-01-16T01:18:45;1.30;99.90
15257;DHT22;7731;50.720;6.912;2024-01-16T01:21:18;1.20;99.90
15257;DHT22;7731;50.720;6.912;2024-01-16T01:24:00;1.20;99.90
15257;DHT22;7731;50.720;6.912;2024-01-16T01:26:40;1.40;99.90
15257;DHT22;7731;50.720;6.912;2024-01-16T01:29:15;1.30;99.90
15257;DHT22;7731;50.720;6.912;2024-01-16T01:31:48;1.30;99.90
15257;DHT22;7731;50.720;6.912;2024-01-16T01:34:19;1.30;99.90
15257;DHT22;7731;50.720;6.912;2024-01-16T01:36:51;1.20;99.90
15257;DHT22;7731;50.720;6.912;2024-01-16T01:39:27;1.10;99.90
15257;DHT22;7731;50.720;6.912;2024-01-16T01:41:57;1.00;99.90
15257;DHT22;7731;50.720;6.912;2024-01-16T01:44:27;1.00;99.90
15257;DHT22;7731;50.720;6.912;2024-01-16T01:46:58;1.00;99.90
15257;DHT22;7731;50.720;6.912;2024-01-16T01:49:30;1.10;99.90
15257;DHT22;7731;50.720;6.912;2024-01-16T01:52:01;1.20;99.90
15257;DHT22;7731;50.720;6.912;2024-01-16T01:54:42;1.20;99.90
15257;DHT22;7731;50.720;6.912;2024-01-16T01:57:16;1.20;99.90
15257;DHT22;7731;50.720;6.912;2024-01-16T01:59:53;1.30;99.90
15257;DHT22;7731;50.720;6.912;2024-01-16T02:02:24;1.20;99.90
15257;DHT22;7731;50.720;6.912;2024-01-16T02:04:56;1.10;99.90
15257;DHT22;7731;50.720;6.912;2024-01-16T02:07:27;1.10;99.90
15257;DHT22;7731;50.720;6.912;2024-01-16T02:10:00;1.00;99.90
15257;DHT22;7731;50.720;6.912;2024-01-16T02:12:34;0.90;99.90
15257;DHT22;7731;50.720;6.912;2024-01-16T02:15:05;0.90;99.90
15257;DHT22;7731;50.720;6.912;2024-01-16T02:17:37;1.00;99.90
15257;DHT22;7731;50.720;6.912;2024-01-16T02:20:08;1.00;99.90
15257;DHT22;7731;50.720;6.912;2024-01-16T02:22:45;0.90;99.90
15257;DHT22;7731;50.720;6.912;2024-01-16T02:25:26;0.90;99.90
15257;DHT22;7731;50.720;6.912;2024-01-16T02:28:00;0.90;99.90
15257;DHT22;7731;50.720;6.912;2024-01-16T02:30:31;0.90;99.90
15257;DHT22;7731;50.720;6.912;2024-01-16T02:33:04;0.90;99.90
15257;DHT22;7731;50.720;6.912;2024-01-16T02:35:38;0.90;99.90
15257;DHT22;7731;50.720;6.912;2024-01-16T02:38:09;1.00;99.90
15257;DHT22;7731;50.720;6.912;2024-01-16T02:40:42;1.00;99.90
15257;DHT22;7731;50.720;6.912;2024-01-16T02:43:15;1.00;99.90
15257;DHT22;7731;50.720;6.912;2024-01-16T02:45:48;0.90;99.90
15257;DHT22;7731;50.720;6.912;2024-01-16T02:48:22;1.00;99.90
15257;DHT22;7731;50.720;6.912;2024-01-16T02:50:54;1.00;99.90
15257;DHT22;7731;50.720;6.912;2024-01-16T02:53:24;1.10;99.90
15257;DHT22;7731;50.720;6.912;2024-01-16T02:56:00;1.10;99.90
15257;DHT22;7731;50.720;6.912;2024-01-16T02:58:37;1.20;99.90
15257;DHT22;7731;50.720;6.912;2024-01-16T03:01:07;1.20;99.90
15257;DHT22;7731;50.720;6.912;2024-01-16T03:03:43;1.20;99.90
15257;DHT22;7731;50.720;6.912;2024-01-16T03:06:21;1.20;99.90
15257;DHT22;7731;50.720;6.912;2024-01-16T03:08:56;1.20;99.90
15257;DHT22;7731;50.720;6.912;2024-01-16T03:11:38;1.30;99.90
15257;DHT22;7731;50.720;6.912;2024-01-16T03:14:08;1.40;99.90
15257;DHT22;7731;50.720;6.912;2024-01-16T03:16:41;1.40;99.90
15257;DHT22;7731;50.720;6.912;2024-01-16T03:19:12;1.20;99.90
15257;DHT22;7731;50.720;6.912;2024-01-16T03:21:43;1.30;99.90
15257;DHT22;7731;50.720;6.912;2024-01-16T03:24:13;1.40;99.90
15257;DHT22;7731;50.720;6.912;2024-01-16T03:26:46;1.30;99.90
15257;DHT22;7731;50.720;6.912;2024-01-16T03:29:16;1.30;99.90
15257;DHT22;7731;50.720;6.912;2024-01-16T03:31:47;1.20;99.90
15257;DHT22;7731;50.720;6.912;2024-01-16T03:34:17;1.20;99.90
15257;DHT22;7731;50.720;6.912;2024-01-16T03:36:48;1.20;99.90
15257;DHT22;7731;50.720;6.912;2024-01-16T03:39:18;1.50;99.90
15257;DHT22;7731;50.720;6.912;2024-01-16T03:41:52;1.50;99.90
15257;DHT22;7731;50.720;6.912;2024-01-16T03:44:24;1.60;99.90
15257;DHT22;7731;50.720;6.912;2024-01-16T03:46:57;1.60;99.90
15257;DHT22;7731;50.720;6.912;2024-01-16T03:49:27;1.60;99.90
15257;DHT22;7731;50.720;6.912;2024-01-16T03:51:58;1.40;99.90
15257;DHT22;7731;50.720;6.912;2024-01-16T03:54:32;1.40;99.90
15257;DHT22;7731;50.720;6.912;2024-01-16T03:57:05;1.50;99.90
15257;DHT22;7731;50.720;6.912;2024-01-16T03:59:37;1.60;99.90
15257;DHT22;7731;50.720;6.912;2024-01-16T04:02:07;1.70;99.90
15257;DHT22;7731;50.720;6.912;2024-01-16T04:04:38;1.80;99.90
15257;DHT22;7731;50.720;6.912;2024-01-16T04:07:11;1.60;99.90
15257;DHT22;7731;50.720;6.912;2024-01-16T04:09:42;1.60;99.90
15257;DHT22;7731;50.720;6.912;2024-01-16T04:12:15;1.60;99.90
15257;DHT22;7731;50.720;6.912;2024-01-16T04:14:45;1.40;99.90
15257;DHT22;7731;50.720;6.912;2024-01-16T04:17:15;1.50;99.90
15257;DHT22;7731;50.720;6.912;2024-01-16T04:19:46;1.50;99.90
15257;DHT22;7731;50.720;6.912;2024-01-16T04:22:16;1.50;99.90
15257;DHT22;7731;50.720;6.912;2024-01-16T04:24:46;1.30;99.90
15257;DHT22;7731;50.720;6.912;2024-01-16T04:27:21;1.30;99.90
15257;DHT22;7731;50.720;6.912;2024-01-16T04:29:54;1.30;99.90
15257;DHT22;7731;50.720;6.912;2024-01-16T04:32:27;1.50;99.90
15257;DHT22;7731;50.720;6.912;2024-01-16T04:34:57;1.30;99.90
15257;DHT22;7731;50.720;6.912;2024-01-16T04:37:28;1.40;99.90
15257;DHT22;7731;50.720;6.912;2024-01-16T04:40:01;1.50;99.90
15257;DHT22;7731;50.720;6.912;2024-01-16T04:42:37;1.50;99.90
15257;DHT22;7731;50.720;6.912;2024-01-16T04:45:10;1.50;99.90
15257;DHT22;7731;50.720;6.912;2024-01-16T04:47:40;1.50;99.90
15257;DHT22;7731;50.720;6.912;2024-01-16T04:50:14;1.40;99.90
15257;DHT22;7731;50.720;6.912;2024-01-16T04:52:44;1.40;99.90
15257;DHT22;7731;50.720;6.912;2024-01-16T04:55:18;1.20;99.90
15257;DHT22;7731;50.720;6.912;2024-01-16T04:57:51;1.20;99.90
15257;DHT22;7731;50.720;6.912;2024-01-16T05:00:21;1.20;99.90
15257;DHT22;7731;50.720;6.912;2024-01-16T05:02:53;1.10;99.90
15257;DHT22;7731;50.720;6.912;2024-01-16T05:05:26;1.10;99.90
15257;DHT22;7731;50.720;6.912;2024-01-16T05:08:01;1.00;99.90
15257;DHT22;7731;50.720;6.912;2024-01-16T05:10:35;1.10;99.90
15257;DHT22;7731;50.720;6.912;2024-01-16T05:13:22;1.20;99.90
15257;DHT22;7731;50.720;6.912;2024-01-16T05:15:55;1.20;99.90
15257;DHT22;7731;50.720;6.912;2024-01-16T05:18:25;1.20;99.90
15257;DHT22;7731;50.720;6.912;2024-01-16T05:20:55;1.10;99.90
15257;DHT22;7731;50.720;6.912;2024-01-16T05:23:32;1.20;99.90
15257;DHT22;7731;50.720;6.912;2024-01-16T05:26:02;1.20;99.90
15257;DHT22;7731;50.720;6.912;2024-01-16T05:28:35;1.30;99.90
15257;DHT22;7731;50.720;6.912;2024-01-16T05:31:08;1.20;99.90
15257;DHT22;7731;50.720;6.912;2024-01-16T05:33:42;1.20;99.90
15257;DHT22;7731;50.720;6.912;2024-01-16T05:36:15;1.30;99.90
15257;DHT22;7731;50.720;6.912;2024-01-16T05:38:45;1.30;99.90
15257;DHT22;7731;50.720;6.912;2024-01-16T05:41:20;1.30;99.90
15257;DHT22;7731;50.720;6.912;2024-01-16T05:43:57;1.30;99.90
15257;DHT22;7731;50.720;6.912;2024-01-16T05:46:27;1.40;99.90
15257;DHT22;7731;50.720;6.912;2024-01-16T05:49:00;1.50;99.90
15257;DHT22;7731;50.720;6.912;2024-01-16T05:51:30;1.80;99.90
15257;DHT22;7731;50.720;6.912;2024-01-16T05:54:01;1.80;99.90
15257;DHT22;7731;50.720;6.912;2024-01-16T05:56:34;1.80;99.90
15257;DHT22;7731;50.720;6.912;2024-01-16T05:59:07;1.70;99.90
15257;DHT22;7731;50.720;6.912;2024-01-16T06:01:40;1.90;99.90
15257;DHT22;7731;50.720;6.912;2024-01-16T06:04:13;1.70;99.90
15257;DHT22;7731;50.720;6.912;2024-01-16T06:06:43;1.60;99.90
15257;DHT22;7731;50.720;6.912;2024-01-16T06:09:15;1.50;99.90
15257;DHT22;7731;50.720;6.912;2024-01-16T06:11:45;1.60;99.90
15257;DHT22;7731;50.720;6.912;2024-01-16T06:14:21;1.50;99.90
15257;DHT22;7731;50.720;6.912;2024-01-16T06:16:51;1.50;99.90
15257;DHT22;7731;50.720;6.912;2024-01-16T06:19:24;1.50;99.90
15257;DHT22;7731;50.720;6.912;2024-01-16T06:21:58;1.50;99.90
15257;DHT22;7731;50.720;6.912;2024-01-16T06:24:32;1.50;99.90
15257;DHT22;7731;50.720;6.912;2024-01-16T06:27:05;1.40;99.90
15257;DHT22;7731;50.720;6.912;2024-01-16T06:29:38;1.40;99.90
15257;DHT22;7731;50.720;6.912;2024-01-16T06:32:14;1.50;99.90
15257;DHT22;7731;50.720;6.912;2024-01-16T06:34:45;1.40;99.90
15257;DHT22;7731;50.720;6.912;2024-01-16T06:37:15;1.40;99.90
15257;DHT22;7731;50.720;6.912;2024-01-16T06:39:46;1.40;99.90
15257;DHT22;7731;50.720;6.912;2024-01-16T06:42:22;1.30;99.90
15257;DHT22;7731;50.720;6.912;2024-01-16T06:44:55;1.40;99.90
15257;DHT22;7731;50.720;6.912;2024-01-16T06:47:29;1.30;99.90
15257;DHT22;7731;50.720;6.912;2024-01-16T06:49:59;1.20;99.90
15257;DHT22;7731;50.720;6.912;2024-01-16T06:52:42;1.20;99.90
15257;DHT22;7731;50.720;6.912;2024-01-16T06:55:12;1.20;99.90
15257;DHT22;7731;50.720;6.912;2024-01-16T06:57:43;1.10;99.90
15257;DHT22;7731;50.720;6.912;2024-01-16T07:00:19;1.20;99.90
15257;DHT22;7731;50.720;6.912;2024-01-16T07:02:59;1.20;99.90
15257;DHT22;7731;50.720;6.912;2024-01-16T07:05:35;1.20;99.90
15257;DHT22;7731;50.720;6.912;2024-01-16T07:08:08;1.20;99.90
15257;DHT22;7731;50.720;6.912;2024-01-16T07:10:38;1.30;99.90
15257;DHT22;7731;50.720;6.912;2024-01-16T07:13:11;1.40;99.90
15257;DHT22;7731;50.720;6.912;2024-01-16T07:15:46;1.30;99.90
15257;DHT22;7731;50.720;6.912;2024-01-16T07:18:16;1.20;99.90
15257;DHT22;7731;50.720;6.912;2024-01-16T07:20:50;1.20;99.90
15257;DHT22;7731;50.720;6.912;2024-01-16T07:23:23;1.00;99.90
15257;DHT22;7731;50.720;6.912;2024-01-16T07:25:56;1.10;99.90
15257;DHT22;7731;50.720;6.912;2024-01-16T07:28:29;1.00;99.90
15257;DHT22;7731;50.720;6.912;2024-01-16T07:31:09;0.90;99.90
15257;DHT22;7731;50.720;6.912;2024-01-16T07:33:43;1.10;99.90
15257;DHT22;7731;50.720;6.912;2024-01-16T07:36:19;1.00;99.90
15257;DHT22;7731;50.720;6.912;2024-01-16T07:38:49;0.90;99.90
15257;DHT22;7731;50.720;6.912;2024-01-16T07:41:22;0.70;99.90
15257;DHT22;7731;50.720;6.912;2024-01-16T07:43:53;0.70;99.90
15257;DHT22;7731;50.720;6.912;2024-01-16T07:46:29;0.80;99.90
15257;DHT22;7731;50.720;6.912;2024-01-16T07:49:01;0.70;99.90
15257;DHT22;7731;50.720;6.912;2024-01-16T07:51:33;0.70;99.90
15257;DHT22;7731;50.720;6.912;2024-01-16T07:54:08;0.70;99.90
15257;DHT22;7731;50.720;6.912;2024-01-16T07:56:40;0.90;99.90
15257;DHT22;7731;50.720;6.912;2024-01-16T07:59:13;0.70;99.90
15257;DHT22;7731;50.720;6.912;2024-01-16T08:01:49;0.70;99.90
15257;DHT22;7731;50.720;6.912;2024-01-16T08:04:20;0.80;99.90
15257;DHT22;7731;50.720;6.912;2024-01-16T08:06:52;0.70;99.90
15257;DHT22;7731;50.720;6.912;2024-01-16T08:09:32;0.70;99.90
15257;DHT22;7731;50.720;6.912;2024-01-16T08:12:03;0.70;99.90
15257;DHT22;7731;50.720;6.912;2024-01-16T08:14:34;0.70;99.90
15257;DHT22;7731;50.720;6.912;2024-01-16T08:17:12;0.90;99.90
15257;DHT22;7731;50.720;6.912;2024-01-16T08:19:45;0.80;99.90
15257;DHT22;7731;50.720;6.912;2024-01-16T08:22:18;0.80;99.90
15257;DHT22;7731;50.720;6.912;2024-01-16T08:24:48;0.80;99.90
15257;DHT22;7731;50.720;6.912;2024-01-16T08:27:24;0.70;99.90
15257;DHT22;7731;50.720;6.912;2024-01-16T08:29:58;0.70;99.90
15257;DHT22;7731;50.720;6.912;2024-01-16T08:32:31;0.60;99.90
15257;DHT22;7731;50.720;6.912;2024-01-16T08:35:02;0.50;99.90
15257;DHT22;7731;50.720;6.912;2024-01-16T08:37:36;0.60;99.90
15257;DHT22;7731;50.720;6.912;2024-01-16T08:40:07;0.70;99.90
15257;DHT22;7731;50.720;6.912;2024-01-16T08:42:41;0.80;99.90
15257;DHT22;7731;50.720;6.912;2024-01-16T08:45:11;1.00;99.90
15257;DHT22;7731;50.720;6.912;2024-01-16T08:47:44;1.20;99.90
15257;DHT22;7731;50.720;6.912;2024-01-16T08:50:15;1.20;99.90
15257;DHT22;7731;50.720;6.912;2024-01-16T08:52:45;1.30;99.90
15257;DHT22;7731;50.720;6.912;2024-01-16T08:55:16;1.40;99.90
15257;DHT22;7731;50.720;6.912;2024-01-16T08:57:49;1.50;99.90
15257;DHT22;7731;50.720;6.912;2024-01-16T09:00:19;1.40;99.90
15257;DHT22;7731;50.720;6.912;2024-01-16T09:02:53;2.10;99.90
15257;DHT22;7731;50.720;6.912;2024-01-16T09:05:26;2.60;79.30
15257;DHT22;7731;50.720;6.912;2024-01-16T09:08:02;2.80;64.20
15257;DHT22;7731;50.720;6.912;2024-01-16T09:10:37;2.70;42.40
15257;DHT22;7731;50.720;6.912;2024-01-16T09:13:08;2.80;84.20
15257;DHT22;7731;50.720;6.912;2024-01-16T09:15:41;3.70;32.50
15257;DHT22;7731;50.720;6.912;2024-01-16T09:18:15;5.30;1.00
15257;DHT22;7731;50.720;6.912;2024-01-16T09:20:47;6.70;99.90
15257;DHT22;7731;50.720;6.912;2024-01-16T09:23:21;6.80;99.90
15257;DHT22;7731;50.720;6.912;2024-01-16T09:25:51;6.20;1.00
15257;DHT22;7731;50.720;6.912;2024-01-16T09:28:21;6.00;1.00
15257;DHT22;7731;50.720;6.912;2024-01-16T09:30:52;5.60;1.00
15257;DHT22;7731;50.720;6.912;2024-01-16T09:33:28;5.50;1.00
15257;DHT22;7731;50.720;6.912;2024-01-16T09:36:01;6.10;1.00
15257;DHT22;7731;50.720;6.912;2024-01-16T09:38:32;5.90;1.00
15257;DHT22;7731;50.720;6.912;2024-01-16T09:41:02;5.60;1.00
15257;DHT22;7731;50.720;6.912;2024-01-16T09:43:33;5.60;1.00
15257;DHT22;7731;50.720;6.912;2024-01-16T09:46:15;5.20;1.00
15257;DHT22;7731;50.720;6.912;2024-01-16T09:48:50;4.70;99.90
15257;DHT22;7731;50.720;6.912;2024-01-16T09:51:24;4.70;1.00
15257;DHT22;7731;50.720;6.912;2024-01-16T09:53:57;5.20;1.00
15257;DHT22;7731;50.720;6.912;2024-01-16T09:56:38;5.60;99.90
15257;DHT22;7731;50.720;6.912;2024-01-16T09:59:15;5.90;1.00
15257;DHT22;7731;50.720;6.912;2024-01-16T10:01:52;6.20;99.90
15257;DHT22;7731;50.720;6.912;2024-01-16T10:04:27;5.90;1.00
15257;DHT22;7731;50.720;6.912;2024-01-16T10:07:04;5.50;99.90
15257;DHT22;7731;50.720;6.912;2024-01-16T10:09:35;5.70;1.00
15257;DHT22;7731;50.720;6.912;2024-01-16T10:12:08;5.60;1.00
15257;DHT22;7731;50.720;6.912;2024-01-16T10:14:48;5.50;1.00
15257;DHT22;7731;50.720;6.912;2024-01-16T10:17:35;5.20;1.00
15257;DHT22;7731;50.720;6.912;2024-01-16T10:20:32;4.70;1.00
15257;DHT22;7731;50.720;6.912;2024-01-16T10:23:09;4.50;99.90
15257;DHT22;7731;50.720;6.912;2024-01-16T10:25:40;4.20;1.00
15257;DHT22;7731;50.720;6.912;2024-01-16T10:28:23;3.90;1.00
15257;DHT22;7731;50.720;6.912;2024-01-16T10:31:02;3.60;1.00
15257;DHT22;7731;50.720;6.912;2024-01-16T10:33:36;3.80;1.00
15257;DHT22;7731;50.720;6.912;2024-01-16T10:36:11;3.50;1.00
15257;DHT22;7731;50.720;6.912;2024-01-16T10:38:47;3.50;1.00
15257;DHT22;7731;50.720;6.912;2024-01-16T10:41:26;3.90;1.00
15257;DHT22;7731;50.720;6.912;2024-01-16T10:44:04;4.30;99.90
15257;DHT22;7731;50.720;6.912;2024-01-16T10:46:37;4.40;99.90
15257;DHT22;7731;50.720;6.912;2024-01-16T10:49:10;4.50;99.90
15257;DHT22;7731;50.720;6.912;2024-01-16T10:51:43;4.70;99.90
15257;DHT22;7731;50.720;6.912;2024-01-16T10:54:17;4.70;1.00
15257;DHT22;7731;50.720;6.912;2024-01-16T10:56:50;4.50;1.00
15257;DHT22;7731;50.720;6.912;2024-01-16T10:59:30;4.50;1.00
15257;DHT22;7731;50.720;6.912;2024-01-16T11:02:10;4.50;99.90
15257;DHT22;7731;50.720;6.912;2024-01-16T11:04:45;4.30;1.00
15257;DHT22;7731;50.720;6.912;2024-01-16T11:07:23;4.50;1.00
15257;DHT22;7731;50.720;6.912;2024-01-16T11:09:57;4.70;99.90
15257;DHT22;7731;50.720;6.912;2024-01-16T11:12:34;5.10;99.90
15257;DHT22;7731;50.720;6.912;2024-01-16T11:15:07;5.90;1.00
15257;DHT22;7731;50.720;6.912;2024-01-16T11:17:41;6.60;1.00
15257;DHT22;7731;50.720;6.912;2024-01-16T11:23:30;6.40;1.00
15257;DHT22;7731;50.720;6.912;2024-01-16T11:26:27;5.90;1.00
15257;DHT22;7731;50.720;6.912;2024-01-16T11:29:00;5.40;1.00
15257;DHT22;7731;50.720;6.912;2024-01-16T11:32:32;4.90;99.90
15257;DHT22;7731;50.720;6.912;2024-01-16T11:35:06;4.60;1.00
15257;DHT22;7731;50.720;6.912;2024-01-16T11:37:40;4.50;1.00
15257;DHT22;7731;50.720;6.912;2024-01-16T11:40:24;4.50;99.90
15257;DHT22;7731;50.720;6.912;2024-01-16T11:42:58;4.90;1.00
15257;DHT22;7731;50.720;6.912;2024-01-16T11:46:08;4.90;99.90
15257;DHT22;7731;50.720;6.912;2024-01-16T11:48:38;5.00;1.00
15257;DHT22;7731;50.720;6.912;2024-01-16T11:51:23;4.20;1.00
15257;DHT22;7731;50.720;6.912;2024-01-16T11:53:55;3.80;99.90
15257;DHT22;7731;50.720;6.912;2024-01-16T12:00:19;5.50;1.00
15257;DHT22;7731;50.720;6.912;2024-01-16T12:02:52;5.70;1.00
15257;DHT22;7731;50.720;6.912;2024-01-16T12:05:23;5.20;42.60
15257;DHT22;7731;50.720;6.912;2024-01-16T12:07:54;5.00;1.00
15257;DHT22;7731;50.720;6.912;2024-01-16T12:10:25;5.40;1.00
15257;DHT22;7731;50.720;6.912;2024-01-16T12:12:59;5.60;99.90
15257;DHT22;7731;50.720;6.912;2024-01-16T12:15:35;6.10;1.00
15257;DHT22;7731;50.720;6.912;2024-01-16T12:18:17;6.10;1.00
15257;DHT22;7731;50.720;6.912;2024-01-16T12:21:08;6.20;99.90
15257;DHT22;7731;50.720;6.912;2024-01-16T12:23:40;6.40;99.90
15257;DHT22;7731;50.720;6.912;2024-01-16T12:26:34;6.30;99.90
15257;DHT22;7731;50.720;6.912;2024-01-16T12:29:07;6.20;99.90
15257;DHT22;7731;50.720;6.912;2024-01-16T12:31:39;6.10;99.90
15257;DHT22;7731;50.720;6.912;2024-01-16T12:34:10;6.00;99.90
15257;DHT22;7731;50.720;6.912;2024-01-16T12:36:43;5.80;99.90
15257;DHT22;7731;50.720;6.912;2024-01-16T12:39:13;5.90;1.00
15257;DHT22;7731;50.720;6.912;2024-01-16T12:41:46;5.90;1.00
15257;DHT22;7731;50.720;6.912;2024-01-16T12:44:26;5.80;1.00
15257;DHT22;7731;50.720;6.912;2024-01-16T12:46:59;5.50;1.00
15257;DHT22;7731;50.720;6.912;2024-01-16T12:49:40;5.30;1.00
15257;DHT22;7731;50.720;6.912;2024-01-16T12:52:17;4.90;1.00
15257;DHT22;7731;50.720;6.912;2024-01-16T12:54:58;4.50;99.90
15257;DHT22;7731;50.720;6.912;2024-01-16T12:57:31;4.50;99.90
15257;DHT22;7731;50.720;6.912;2024-01-16T13:00:21;4.40;15.10
15257;DHT22;7731;50.720;6.912;2024-01-16T13:02:52;4.10;1.00
15257;DHT22;7731;50.720;6.912;2024-01-16T13:05:26;4.00;1.00
15257;DHT22;7731;50.720;6.912;2024-01-16T13:08:00;3.90;14.60
15257;DHT22;7731;50.720;6.912;2024-01-16T13:10:32;3.80;99.90
15257;DHT22;7731;50.720;6.912;2024-01-16T13:13:13;3.70;99.90
15257;DHT22;7731;50.720;6.912;2024-01-16T13:15:47;3.60;1.00
15257;DHT22;7731;50.720;6.912;2024-01-16T13:18:30;3.60;1.00
15257;DHT22;7731;50.720;6.912;2024-01-16T13:21:01;3.40;1.00
15257;DHT22;7731;50.720;6.912;2024-01-16T13:23:34;3.30;99.90
15257;DHT22;7731;50.720;6.912;2024-01-16T13:26:08;3.40;46.30
15257;DHT22;7731;50.720;6.912;2024-01-16T13:31:37;3.10;99.90
15257;DHT22;7731;50.720;6.912;2024-01-16T13:34:08;3.20;2.30
15257;DHT22;7731;50.720;6.912;2024-01-16T13:36:41;3.40;1.00
15257;DHT22;7731;50.720;6.912;2024-01-16T13:39:32;3.40;1.00
15257;DHT22;7731;50.720;6.912;2024-01-16T13:42:06;3.50;99.90
15257;DHT22;7731;50.720;6.912;2024-01-16T13:44:38;3.50;8.00
15257;DHT22;7731;50.720;6.912;2024-01-16T13:47:18;3.30;1.00
15257;DHT22;7731;50.720;6.912;2024-01-16T13:49:49;3.30;99.90
15257;DHT22;7731;50.720;6.912;2024-01-16T13:52:19;3.30;99.90
15257;DHT22;7731;50.720;6.912;2024-01-16T13:54:54;3.10;1.00
15257;DHT22;7731;50.720;6.912;2024-01-16T13:57:24;3.20;1.00
15257;DHT22;7731;50.720;6.912;2024-01-16T13:59:54;3.20;99.90
15257;DHT22;7731;50.720;6.912;2024-01-16T14:02:30;3.10;1.00
15257;DHT22;7731;50.720;6.912;2024-01-16T14:05:07;3.20;78.40
15257;DHT22;7731;50.720;6.912;2024-01-16T14:07:39;3.20;99.90
15257;DHT22;7731;50.720;6.912;2024-01-16T14:10:13;3.20;99.90
15257;DHT22;7731;50.720;6.912;2024-01-16T14:12:45;3.10;1.00
15257;DHT22;7731;50.720;6.912;2024-01-16T14:15:20;3.20;1.80
15257;DHT22;7731;50.720;6.912;2024-01-16T14:17:58;3.30;1.00
15257;DHT22;7731;50.720;6.912;2024-01-16T14:20:30;3.30;1.00
15257;DHT22;7731;50.720;6.912;2024-01-16T14:23:00;3.00;1.00
15257;DHT22;7731;50.720;6.912;2024-01-16T14:25:31;2.90;84.40
15257;DHT22;7731;50.720;6.912;2024-01-16T14:28:03;2.60;1.00
15257;DHT22;7731;50.720;6.912;2024-01-16T14:30:46;2.50;99.90
15257;DHT22;7731;50.720;6.912;2024-01-16T14:33:23;2.70;99.90
15257;DHT22;7731;50.720;6.912;2024-01-16T14:35:53;2.60;1.00
15257;DHT22;7731;50.720;6.912;2024-01-16T14:38:28;2.70;1.00
15257;DHT22;7731;50.720;6.912;2024-01-16T14:41:01;2.70;1.00
15257;DHT22;7731;50.720;6.912;2024-01-16T14:43:37;2.70;1.00
15257;DHT22;7731;50.720;6.912;2024-01-16T14:46:10;2.80;1.00
15257;DHT22;7731;50.720;6.912;2024-01-16T14:48:48;2.70;99.90
15257;DHT22;7731;50.720;6.912;2024-01-16T14:51:19;2.60;99.90
15257;DHT22;7731;50.720;6.912;2024-01-16T14:53:49;2.50;99.90
15257;DHT22;7731;50.720;6.912;2024-01-16T14:56:19;2.40;1.00
15257;DHT22;7731;50.720;6.912;2024-01-16T14:58:53;2.30;1.00
15257;DHT22;7731;50.720;6.912;2024-01-16T15:01:23;2.20;99.90
15257;DHT22;7731;50.720;6.912;2024-01-16T15:03:59;2.20;99.90
15257;DHT22;7731;50.720;6.912;2024-01-16T15:06:29;1.90;89.10
15257;DHT22;7731;50.720;6.912;2024-01-16T15:09:04;1.70;1.00
15257;DHT22;7731;50.720;6.912;2024-01-16T15:11:37;1.60;1.00
15257;DHT22;7731;50.720;6.912;2024-01-16T15:14:11;1.70;1.00
15257;DHT22;7731;50.720;6.912;2024-01-16T15:16:46;1.60;99.90
15257;DHT22;7731;50.720;6.912;2024-01-16T15:19:22;1.50;99.90
15257;DHT22;7731;50.720;6.912;2024-01-16T15:21:53;1.40;99.90
15257;DHT22;7731;50.720;6.912;2024-01-16T15:24:27;1.20;99.90
15257;DHT22;7731;50.720;6.912;2024-01-16T15:26:57;1.10;1.00
15257;DHT22;7731;50.720;6.912;2024-01-16T15:29:28;1.00;1.00
15257;DHT22;7731;50.720;6.912;2024-01-16T15:31:59;1.00;1.00
15257;DHT22;7731;50.720;6.912;2024-01-16T15:34:36;1.00;1.00
15257;DHT22;7731;50.720;6.912;2024-01-16T15:37:07;1.10;1.00
15257;DHT22;7731;50.720;6.912;2024-01-16T15:39:38;1.10;1.00
15257;DHT22;7731;50.720;6.912;2024-01-16T15:42:11;1.10;1.00
15257;DHT22;7731;50.720;6.912;2024-01-16T15:44:41;1.10;1.00
15257;DHT22;7731;50.720;6.912;2024-01-16T15:47:15;1.00;1.00
15257;DHT22;7731;50.720;6.912;2024-01-16T15:49:48;1.00;99.90
15257;DHT22;7731;50.720;6.912;2024-01-16T15:52:18;0.80;1.00
15257;DHT22;7731;50.720;6.912;2024-01-16T15:54:49;0.80;1.00
15257;DHT22;7731;50.720;6.912;2024-01-16T15:57:22;0.70;1.00
15257;DHT22;7731;50.720;6.912;2024-01-16T15:59:52;0.50;1.00
15257;DHT22;7731;50.720;6.912;2024-01-16T16:02:25;0.50;1.00
15257;DHT22;7731;50.720;6.912;2024-01-16T16:05:01;0.30;1.00
15257;DHT22;7731;50.720;6.912;2024-01-16T16:07:37;0.20;1.00
15257;DHT22;7731;50.720;6.912;2024-01-16T16:10:08;0.10;1.00
15257;DHT22;7731;50.720;6.912;2024-01-16T16:12:42;0.10;1.00
15257;DHT22;7731;50.720;6.912;2024-01-16T16:15:12;0.10;1.00
15257;DHT22;7731;50.720;6.912;2024-01-16T16:17:42;0.10;1.00
15257;DHT22;7731;50.720;6.912;2024-01-16T16:20:15;0.10;1.00
15257;DHT22;7731;50.720;6.912;2024-01-16T16:22:51;0.10;1.00
15257;DHT22;7731;50.720;6.912;2024-01-16T16:25:29;0.10;1.00
15257;DHT22;7731;50.720;6.912;2024-01-16T16:27:59;0.10;1.00
15257;DHT22;7731;50.720;6.912;2024-01-16T16:30:34;0.00;1.00
15257;DHT22;7731;50.720;6.912;2024-01-16T16:33:07;-0.10;1.00
15257;DHT22;7731;50.720;6.912;2024-01-16T16:35:41;-0.10;1.00
15257;DHT22;7731;50.720;6.912;2024-01-16T16:38:14;-0.10;1.00
15257;DHT22;7731;50.720;6.912;2024-01-16T16:40:49;0.00;1.00
15257;DHT22;7731;50.720;6.912;2024-01-16T16:43:19;0.00;1.00
15257;DHT22;7731;50.720;6.912;2024-01-16T16:45:52;0.00;1.00
15257;DHT22;7731;50.720;6.912;2024-01-16T16:48:22;0.10;1.00
15257;DHT22;7731;50.720;6.912;2024-01-16T16:50:55;0.00;1.00
15257;DHT22;7731;50.720;6.912;2024-01-16T16:53:25;-0.20;1.00
15257;DHT22;7731;50.720;6.912;2024-01-16T16:56:11;-0.30;1.00
15257;DHT22;7731;50.720;6.912;2024-01-16T16:58:46;-0.40;1.00
15257;DHT22;7731;50.720;6.912;2024-01-16T17:01:19;-0.50;1.00